createdAt,value
2023-04-10T00:00:46.919Z,102221.47
2023-04-10T00:08:22.112Z,102212.22
2023-04-10T00:15:56.496Z,102199.16
2023-04-10T00:23:34.647Z,102200.63
2023-04-10T00:31:08.930Z,102185.03
2023-04-10T00:38:44.054Z,102182.69
2023-04-10T00:46:18.417Z,102173.44
2023-04-10T00:53:55.489Z,102178.38
2023-04-10T01:01:29.801Z,102173.66
2023-04-10T01:09:18.849Z,102176.03
2023-04-10T01:16:58.371Z,102173.84
2023-04-10T01:24:51.421Z,102172.38
2023-04-10T01:32:29.413Z,102168.38
2023-04-10T01:40:07.136Z,102168.81
2023-04-10T01:47:43.530Z,102166.72
2023-04-10T02:12:06.992Z,102160.50
2023-04-10T02:19:44.667Z,102161.50
2023-04-10T02:27:28.691Z,102148.78
2023-04-10T02:35:04.646Z,102153.81
2023-04-10T02:42:39.055Z,102164.13
2023-04-10T02:50:14.593Z,102156.81
2023-04-10T02:57:48.641Z,102157.88
2023-04-10T03:05:24.032Z,102163.59
2023-04-10T03:12:57.988Z,102166.03
2023-04-10T03:20:33.654Z,102162.31
2023-04-10T03:28:07.820Z,102150.97
2023-04-10T03:43:35.070Z,102152.91
2023-04-10T03:51:10.656Z,102151.78
2023-04-10T03:58:44.615Z,102151.59
2023-04-10T04:06:20.526Z,102153.16
2023-04-10T04:13:54.710Z,102157.22
2023-04-10T04:21:30.168Z,102147.28
2023-04-10T04:29:04.230Z,102155.09
2023-04-10T04:36:39.775Z,102157.56
2023-04-10T04:44:13.620Z,102165.47
2023-04-10T04:51:48.920Z,102154.19
2023-04-10T04:59:22.963Z,102162.94
2023-04-10T05:06:58.459Z,102158.66
2023-04-10T05:14:32.479Z,102161.78
2023-04-10T05:22:07.881Z,102164.13
2023-04-10T05:29:41.984Z,102173.63
2023-04-10T05:37:17.347Z,102162.13
2023-04-10T05:44:51.448Z,102157.88
2023-04-10T05:52:26.819Z,102163.97
2023-04-10T06:00:00.988Z,102159.31
2023-04-10T06:07:36.522Z,102164.00
2023-04-10T06:15:11.194Z,102155.34
2023-04-10T06:22:46.324Z,102156.03
2023-04-10T06:30:20.293Z,102155.53
2023-04-10T06:37:55.598Z,102144.91
2023-04-10T06:45:29.527Z,102147.41
2023-04-10T06:53:04.871Z,102151.47
2023-04-10T07:00:38.850Z,102143.56
2023-04-10T07:08:14.156Z,102148.03
2023-04-10T07:15:48.171Z,102143.41
2023-04-10T07:31:15.148Z,102145.19
2023-04-10T07:38:50.806Z,102140.03
2023-04-10T07:46:24.974Z,102127.44
2023-04-10T07:54:00.556Z,102118.88
2023-04-10T08:09:27.542Z,102115.06
2023-04-10T08:17:01.561Z,102110.94
2023-04-10T08:24:37.186Z,102113.09
2023-04-10T08:32:11.104Z,102109.63
2023-04-10T08:39:46.742Z,102106.41
2023-04-10T08:47:22.642Z,102102.31
2023-04-10T08:54:58.950Z,102094.00
2023-04-10T09:02:32.960Z,102080.63
2023-04-10T09:10:09.741Z,102073.53
2023-04-10T09:17:57.693Z,102064.69
2023-04-10T09:33:28.940Z,102049.44
2023-04-10T09:41:09.579Z,102040.69
2023-04-10T09:48:56.984Z,102025.78
2023-04-10T09:56:35.427Z,102011.97
2023-04-10T10:04:11.411Z,102006.84
2023-04-10T10:11:49.353Z,101993.63
2023-04-10T10:19:28.355Z,101984.72
2023-04-10T10:27:05.907Z,101979.75
2023-04-10T10:34:40.009Z,101971.53
2023-04-10T10:42:23.210Z,101956.06
2023-04-10T10:49:59.201Z,101935.44
2023-04-10T10:57:52.742Z,101938.06
2023-04-10T11:05:59.640Z,101916.78
2023-04-10T11:13:35.863Z,101902.50
2023-04-10T11:21:11.374Z,101892.03
2023-04-10T11:28:46.708Z,101895.63
2023-04-10T11:36:21.123Z,101874.09
2023-04-10T11:51:49.336Z,101849.97
2023-04-10T11:59:24.811Z,101836.66
2023-04-10T12:06:59.331Z,101822.50
2023-04-10T12:14:37.210Z,101813.41
2023-04-10T12:22:14.072Z,101797.25
2023-04-10T12:37:50.567Z,101775.00
2023-04-10T12:45:43.343Z,101754.38
2023-04-10T12:53:17.479Z,101761.47
2023-04-10T13:00:53.571Z,101740.03
2023-04-10T13:08:27.679Z,101717.63
2023-04-10T13:16:03.101Z,101698.78
2023-04-10T13:23:37.041Z,101675.38
2023-04-10T13:31:12.439Z,101671.81
2023-04-10T13:38:46.390Z,101644.03
2023-04-10T13:46:22.129Z,101646.81
2023-04-10T14:01:53.932Z,101603.75
2023-04-10T14:09:28.444Z,101601.97
2023-04-10T14:17:03.837Z,101601.09
2023-04-10T14:24:37.839Z,101588.44
2023-04-10T14:32:13.209Z,101575.78
2023-04-10T14:39:47.211Z,101561.44
2023-04-10T14:47:24.284Z,101556.97
2023-04-10T14:54:58.464Z,101536.28
2023-04-10T15:02:34.068Z,101533.56
2023-04-10T15:10:10.734Z,101512.81
2023-04-10T15:17:46.432Z,101508.25
2023-04-10T15:33:13.266Z,101485.72
2023-04-10T15:40:47.242Z,101474.00
2023-04-10T15:48:24.713Z,101452.41
2023-04-10T15:55:58.721Z,101444.28
2023-04-10T16:03:34.665Z,101429.03
2023-04-10T16:11:09.079Z,101408.44
2023-04-10T16:18:45.265Z,101404.88
2023-04-10T16:26:20.029Z,101390.50
2023-04-10T16:33:55.375Z,101383.28
2023-04-10T16:41:29.446Z,101373.38
2023-04-10T16:49:04.962Z,101363.41
2023-04-10T16:56:39.112Z,101349.91
2023-04-10T17:04:16.919Z,101327.41
2023-04-10T17:11:53.324Z,101315.72
2023-04-10T17:19:30.774Z,101317.38
2023-04-10T17:27:04.949Z,101291.31
2023-04-10T17:34:40.601Z,101284.06
2023-04-10T17:42:14.668Z,101268.72
2023-04-10T17:49:49.925Z,101257.84
2023-04-10T17:57:23.786Z,101242.53
2023-04-10T18:05:00.546Z,101240.59
2023-04-10T18:12:34.650Z,101246.72
2023-04-10T18:20:11.233Z,101243.00
2023-04-10T19:02:13.524Z,101203.00
2023-04-10T19:09:48.047Z,101192.09
2023-04-10T19:17:25.184Z,101184.84
2023-04-10T19:25:00.333Z,101169.50
2023-04-10T19:32:35.578Z,101159.53
2023-04-10T19:40:10.518Z,101145.13
2023-04-10T19:55:50.468Z,101122.56
2023-04-10T20:03:28.078Z,101106.44
2023-04-10T20:11:02.079Z,101088.50
2023-04-10T20:18:38.534Z,101073.22
2023-04-10T20:26:13.372Z,101061.56
2023-04-10T20:33:48.970Z,101049.03
2023-04-10T20:41:24.227Z,101047.19
2023-04-10T20:49:01.136Z,101058.81
2023-04-10T20:56:42.945Z,101045.31
2023-04-10T21:04:21.033Z,101038.09
2023-04-10T21:11:55.147Z,101035.41
2023-04-10T21:19:30.531Z,101027.28
2023-04-10T21:27:05.169Z,101014.75
2023-04-10T21:34:40.987Z,101011.13
2023-04-10T21:42:14.951Z,100992.28
2023-04-10T21:49:50.711Z,100978.81
2023-04-10T21:57:24.595Z,100962.72
2023-04-10T22:04:59.750Z,100944.84
2023-04-10T22:12:33.593Z,100935.84
2023-04-10T22:20:09.685Z,100927.78
2023-04-10T22:27:43.514Z,100906.28
2023-04-10T22:35:18.737Z,100904.47
2023-04-10T22:42:52.629Z,100906.19
2023-04-10T22:50:27.900Z,100890.09
2023-04-10T22:58:02.158Z,100886.41
2023-04-10T23:05:37.976Z,100870.19
2023-04-10T23:13:11.842Z,100862.97
2023-04-10T23:20:47.520Z,100835.28
2023-04-10T23:28:22.568Z,100808.50
2023-04-10T23:35:57.619Z,100781.72
2023-04-10T23:43:31.391Z,100769.31
2023-04-10T23:51:07.835Z,100769.19
2023-04-10T23:58:42.038Z,100745.97
